Time;durP1;ratioP1;P1;durP2;ratioP2;P2;SDS_P1;SDS_P2;PMS_P1;PMS_P2;Temp;Humidity;BMP_temperature;BMP_pressure;BME280_temperature;BME280_humidity;BME280_pressure;Samples;Min_cycle;Max_cycle;Signal;HPM_P1;HPM_P2
2023/12/08 00:02:10;;;;;;;3.95;3.47;;;;;;;;;;5034134;28;20057;-30
2023/12/08 00:04:37;;;;;;;3.83;3.40;;;19.30;64.80;;;;;;5033980;28;20099;-33
2023/12/08 00:07:04;;;;;;;3.53;3.10;;;19.80;65.00;;;;;;5034153;28;20115;-29
2023/12/08 00:09:32;;;;;;;4.68;3.45;;;20.00;64.80;;;;;;5033959;28;20498;-31
2023/12/08 00:11:59;;;;;;;4.07;3.42;;;18.90;50.00;;;;;;5034089;28;20045;-26
2023/12/08 00:14:27;;;;;;;3.33;2.88;;;19.70;43.90;;;;;;5053086;28;20391;-26
2023/12/08 00:16:54;;;;;;;4.18;3.30;;;20.00;65.70;;;;;;5034262;28;20050;-25
2023/12/08 00:19:21;;;;;;;4.00;2.88;;;;;;;;;;5033938;28;20442;-30
2023/12/08 00:21:48;;;;;;;4.28;3.03;;;20.20;64.80;;;;;;5033831;28;20053;-28
2023/12/08 00:24:14;;;;;;;3.47;3.17;;;18.60;58.40;;;;;;5033899;28;20812;-27
2023/12/08 00:26:41;;;;;;;3.30;2.80;;;19.20;63.50;;;;;;5033798;28;20054;-26
2023/12/08 00:29:08;;;;;;;3.30;3.00;;;19.50;64.80;;;;;;5033836;28;20100;-27
2023/12/08 00:31:35;;;;;;;4.32;2.80;;;19.90;43.70;;;;;;5034649;28;20053;-28
2023/12/08 00:34:02;;;;;;;3.35;2.85;;;19.90;64.80;;;;;;5033436;28;20494;-26
2023/12/08 00:36:29;;;;;;;3.17;2.88;;;;;;;;;;5038578;28;20099;-28
2023/12/08 00:38:56;;;;;;;4.05;3.10;;;20.90;64.80;;;;;;5039012;28;20049;-32
2023/12/08 00:41:25;;;;;;;4.10;3.17;;;;;;;;;;5033234;28;20049;-28
2023/12/08 00:43:52;;;;;;;3.88;3.10;;;19.60;52.90;;;;;;5033218;28;20068;-27
2023/12/08 00:46:18;;;;;;;3.33;3.03;;;20.30;64.40;;;;;;5033757;28;20176;-25
2023/12/08 00:48:47;;;;;;;3.28;2.88;;;21.20;64.90;;;;;;5034689;28;20045;-26
2023/12/08 00:51:14;;;;;;;3.50;3.00;;;;;;;;;;5033166;28;20087;-29
2023/12/08 00:53:41;;;;;;;3.75;3.05;;;19.90;64.20;;;;;;5033422;28;20060;-30
2023/12/08 00:56:09;;;;;;;3.22;2.75;;;19.70;50.50;;;;;;5033224;28;20061;-27
2023/12/08 00:58:36;;;;;;;3.50;2.70;;;19.80;64.80;;;;;;5034276;28;20053;-25
2023/12/08 01:01:02;;;;;;;3.30;2.72;;;20.20;64.90;;;;;;5052890;28;20049;-26
2023/12/08 01:03:29;;;;;;;3.03;2.70;;;19.90;64.00;;;;;;5052544;28;20103;-26
2023/12/08 01:05:58;;;;;;;3.55;2.97;;;19.70;43.20;;;;;;5034169;28;20095;-32
2023/12/08 01:08:24;;;;;;;3.00;2.70;;;19.20;59.10;;;;;;5033050;28;20422;-29
2023/12/08 01:10:51;;;;;;;3.30;3.00;;;19.80;63.90;;;;;;5032742;28;20507;-31
2023/12/08 01:13:19;;;;;;;3.90;2.90;;;;;;;;;;5043195;28;20114;-28
2023/12/08 01:15:46;;;;;;;3.15;2.58;;;20.10;64.00;;;;;;5052894;28;20067;-26
2023/12/08 01:18:13;;;;;;;3.72;2.90;;;20.50;50.50;;;;;;5052706;28;20049;-26
2023/12/08 01:20:40;;;;;;;3.35;2.90;;;20.00;64.80;;;;;;5048793;28;20514;-31
2023/12/08 01:23:08;;;;;;;3.33;3.00;;;20.20;43.40;;;;;;5052752;28;20053;-29
2023/12/08 01:25:35;;;;;;;3.40;2.67;;;;;;;;;;5052629;28;20470;-28
2023/12/08 01:28:02;;;;;;;3.17;2.85;;;19.40;49.10;;;;;;5052603;28;20053;-29
2023/12/08 01:30:29;;;;;;;3.58;2.95;;;;;;;;;;5052156;28;20592;-27
2023/12/08 01:32:56;;;;;;;3.28;2.90;;;20.00;64.60;;;;;;5052563;28;20387;-32
2023/12/08 01:35:23;;;;;;;3.08;2.67;;;20.80;64.50;;;;;;5052370;28;20658;-30
2023/12/08 01:37:49;;;;;;;3.28;2.78;;;19.90;58.40;;;;;;5043959;28;20491;-27
2023/12/08 01:40:18;;;;;;;3.53;3.00;;;20.10;63.90;;;;;;5032168;28;20100;-29
2023/12/08 01:42:47;;;;;;;2.60;2.40;;;20.70;64.10;;;;;;5032456;28;20089;-31
2023/12/08 01:45:14;;;;;;;2.78;2.50;;;20.10;62.50;;;;;;5032559;28;20073;-29
2023/12/08 01:47:41;;;;;;;3.47;2.80;;;;;;;;;;5032471;28;20057;-27
2023/12/08 01:50:09;;;;;;;3.20;2.90;;;19.20;63.30;;;;;;5032078;28;20053;-27
2023/12/08 01:52:36;;;;;;;3.30;2.70;;;20.40;49.20;;;;;;5032011;28;20049;-27
2023/12/08 01:55:03;;;;;;;2.92;2.63;;;20.30;64.30;;;;;;5035562;28;20080;-30
2023/12/08 01:57:31;;;;;;;3.17;2.67;;;20.30;43.30;;;;;;5052230;28;20045;-28
2023/12/08 01:59:58;;;;;;;3.92;2.92;;;;;;;;;;5052049;28;20402;-30
2023/12/08 02:02:25;;;;;;;2.90;2.60;;;20.70;64.10;;;;;;5051826;28;20482;-31
2023/12/08 02:04:52;;;;;;;3.58;2.65;;;;;;;;;;5051494;28;20502;-28
2023/12/08 02:07:19;;;;;;;3.47;2.65;;;19.50;64.30;;;;;;5051804;28;20456;-25
2023/12/08 02:09:47;;;;;;;2.88;2.58;;;20.60;46.30;;;;;;5051907;28;20049;-29
2023/12/08 02:12:14;;;;;;;2.88;2.58;;;19.30;63.20;;;;;;5034764;28;20072;-29
2023/12/08 02:14:42;;;;;;;3.83;2.53;;;20.60;55.40;;;;;;5051864;28;20052;-30
2023/12/08 02:17:12;;;;;;;3.00;2.70;;;19.80;55.50;;;;;;5051798;28;20056;-29
2023/12/08 02:19:39;;;;;;;3.13;2.60;;;20.10;55.60;;;;;;5051588;28;20049;-28
2023/12/08 02:22:06;;;;;;;3.17;2.63;;;20.50;64.20;;;;;;5051547;28;20098;-31
2023/12/08 02:24:34;;;;;;;3.17;2.60;;;20.30;43.20;;;;;;5052016;28;20053;-31
2023/12/08 02:27:01;;;;;;;3.05;2.60;;;21.60;47.60;;;;;;5048656;28;20091;-27
2023/12/08 02:29:28;;;;;;;3.15;2.60;;;19.30;63.10;;;;;;5051145;28;20045;-33
2023/12/08 02:31:58;;;;;;;2.78;2.47;;;20.70;63.80;;;;;;5051401;28;20045;-32
2023/12/08 02:34:26;;;;;;;3.53;2.58;;;21.50;64.20;;;;;;5051581;28;20498;-29
2023/12/08 02:36:53;;;;;;;2.72;2.30;;;20.70;48.50;;;;;;5051180;28;20575;-29
2023/12/08 02:39:20;;;;;;;2.90;2.50;;;20.60;63.80;;;;;;5051569;28;20072;-31
2023/12/08 02:41:48;;;;;;;3.40;2.40;;;20.40;43.20;;;;;;5034335;28;20458;-28
2023/12/08 02:44:15;;;;;;;3.42;2.67;;;;;;;;;;5051471;28;20118;-29
2023/12/08 02:46:42;;;;;;;3.13;2.58;;;21.10;64.00;;;;;;5051635;28;20049;-32
2023/12/08 02:49:09;;;;;;;2.95;2.42;;;;;;;;;;5051137;28;20044;-28
2023/12/08 02:51:36;;;;;;;2.88;2.50;;;20.30;63.60;;;;;;5046168;28;20103;-33
2023/12/08 02:54:03;;;;;;;2.85;2.47;;;;;;;;;;5031565;28;20053;-30
2023/12/08 02:56:30;;;;;;;4.60;2.42;;;20.40;64.00;;;;;;5031542;28;20053;-30
2023/12/08 02:58:58;;;;;;;3.10;2.55;;;19.60;63.20;;;;;;5031660;28;20058;-32
2023/12/08 03:01:26;;;;;;;2.55;2.35;;;;;;;;;;5031362;28;20057;-30
2023/12/08 03:03:53;;;;;;;2.90;2.45;;;20.30;63.60;;;;;;5031472;28;20045;-26
2023/12/08 03:06:20;;;;;;;2.65;2.38;;;;;;;;;;5031326;28;20115;-31
2023/12/08 03:08:47;;;;;;;3.97;2.60;;;21.00;64.70;;;;;;5035335;28;20045;-31
2023/12/08 03:11:14;;;;;;;2.83;2.40;;;;;;;;;;5035176;28;20115;-28
2023/12/08 03:13:41;;;;;;;2.45;2.15;;;20.60;63.70;;;;;;5036521;28;20049;-32
2023/12/08 03:16:09;;;;;;;2.53;2.33;;;19.90;63.70;;;;;;5035056;28;20057;-26
2023/12/08 03:18:36;;;;;;;2.78;2.20;;;20.30;56.10;;;;;;5035039;28;20049;-30
2023/12/08 03:21:03;;;;;;;2.80;2.40;;;21.40;64.10;;;;;;5035038;28;20104;-31
2023/12/08 03:23:30;;;;;;;2.42;2.22;;;;;;;;;;5035096;28;20053;-28
2023/12/08 03:25:58;;;;;;;4.22;2.60;;;;;;;;;;5035114;28;20045;-30
2023/12/08 03:28:24;;;;;;;3.03;2.42;;;20.50;50.80;;;;;;5035618;28;20045;-31
2023/12/08 03:30:51;;;;;;;3.42;2.47;;;20.60;63.60;;;;;;5054306;28;20057;-31
2023/12/08 03:33:20;;;;;;;3.00;2.53;;;20.40;43.10;;;;;;5054739;28;20053;-32
2023/12/08 03:35:47;;;;;;;4.10;2.38;;;;;;;;;;5054711;28;20099;-30
2023/12/08 03:38:14;;;;;;;2.70;2.33;;;20.90;64.70;;;;;;5054504;28;20053;-31
2023/12/08 03:40:40;;;;;;;2.55;2.13;;;20.10;63.50;;;;;;5042900;28;20111;-31
2023/12/08 03:43:07;;;;;;;3.10;2.47;;;19.90;63.10;;;;;;5034645;28;20499;-25
2023/12/08 03:45:34;;;;;;;2.67;2.40;;;20.10;63.40;;;;;;5034804;28;20056;-31
2023/12/08 03:48:01;;;;;;;2.47;2.28;;;;;;;;;;5041038;28;20099;-29
2023/12/08 03:50:29;;;;;;;2.88;2.15;;;19.80;63.10;;;;;;5054528;28;20045;-30
2023/12/08 03:52:57;;;;;;;2.60;2.33;;;20.80;63.80;;;;;;5053521;28;20049;-30
2023/12/08 03:55:24;;;;;;;3.08;2.30;;;20.90;64.20;;;;;;5034273;28;20058;-26
2023/12/08 03:57:51;;;;;;;2.53;2.20;;;20.70;64.60;;;;;;5034253;28;20096;-26
2023/12/08 04:00:19;;;;;;;2.85;2.38;;;19.50;64.00;;;;;;5034546;28;20056;-32
2023/12/08 04:02:46;;;;;;;2.70;2.40;;;20.80;60.40;;;;;;5034324;28;20119;-32
2023/12/08 04:05:13;;;;;;;3.03;2.38;;;;;;;;;;5034151;28;20498;-31
2023/12/08 04:07:41;;;;;;;2.83;2.40;;;19.90;50.40;;;;;;5034149;28;20049;-27
2023/12/08 04:10:09;;;;;;;2.72;2.42;;;20.50;56.40;;;;;;5035152;28;20053;-29
2023/12/08 04:12:36;;;;;;;2.65;2.33;;;20.40;53.10;;;;;;5038509;28;20551;-31
2023/12/08 04:15:03;;;;;;;2.72;2.25;;;20.00;63.30;;;;;;5054147;28;20297;-31
2023/12/08 04:17:30;;;;;;;2.70;2.40;;;20.50;43.70;;;;;;5053400;28;20481;-32
2023/12/08 04:19:57;;;;;;;2.70;2.15;;;20.20;63.40;;;;;;5053658;28;20510;-33
2023/12/08 04:22:23;;;;;;;2.72;2.53;;;19.90;64.10;;;;;;5053673;28;20064;-31
2023/12/08 04:24:52;;;;;;;3.05;2.53;;;19.90;56.60;;;;;;5053964;28;20044;-30
2023/12/08 04:27:18;;;;;;;2.60;2.30;;;20.40;62.50;;;;;;5038729;28;20107;-30
2023/12/08 04:29:45;;;;;;;2.53;2.22;;;20.20;62.90;;;;;;5033874;28;20053;-32
2023/12/08 04:32:12;;;;;;;2.63;2.22;;;;;;;;;;5033576;28;20062;-30
2023/12/08 04:34:39;;;;;;;2.60;2.20;;;19.40;63.40;;;;;;5033811;28;20091;-25
2023/12/08 04:37:06;;;;;;;3.25;2.60;;;;;;;;;;5043382;28;20049;-30
2023/12/08 04:39:33;;;;;;;2.70;2.25;;;20.00;63.60;;;;;;5053383;28;20102;-26
2023/12/08 04:42:01;;;;;;;2.75;2.47;;;20.10;64.20;;;;;;5053594;28;20604;-27
2023/12/08 04:44:28;;;;;;;2.40;2.17;;;20.80;64.50;;;;;;5033415;28;20103;-31
2023/12/08 04:46:55;;;;;;;3.38;2.50;;;20.60;63.50;;;;;;5033671;28;20450;-26
2023/12/08 04:49:22;;;;;;;3.13;2.58;;;20.20;63.40;;;;;;5032994;28;20608;-25
2023/12/08 04:51:49;;;;;;;2.55;2.17;;;;;;;;;;5033279;28;20545;-28
2023/12/08 04:54:16;;;;;;;2.80;2.38;;;20.50;64.00;;;;;;5033375;28;20080;-30
2023/12/08 04:56:43;;;;;;;3.38;2.42;;;;;;;;;;5033332;28;20049;-28
2023/12/08 04:59:11;;;;;;;2.67;2.30;;;20.20;63.40;;;;;;5033146;28;20103;-30
2023/12/08 05:01:38;;;;;;;2.38;2.17;;;19.80;64.10;;;;;;5032640;28;20553;-30
2023/12/08 05:04:05;;;;;;;2.60;2.33;;;;;;;;;;5033205;28;20053;-28
2023/12/08 05:06:32;;;;;;;3.00;2.45;;;21.70;64.20;;;;;;5032935;28;20045;-30
2023/12/08 05:08:59;;;;;;;2.53;2.10;;;;;;;;;;5032924;28;20068;-30
2023/12/08 05:11:26;;;;;;;2.78;2.20;;;21.00;64.10;;;;;;5032715;28;20053;-27
2023/12/08 05:13:53;;;;;;;2.90;2.40;;;20.90;64.00;;;;;;5032885;28;20120;-31
2023/12/08 05:16:21;;;;;;;3.58;2.40;;;20.90;63.50;;;;;;5032609;28;20442;-28
2023/12/08 05:18:49;;;;;;;3.10;2.20;;;20.00;63.60;;;;;;5032833;28;20089;-27
2023/12/08 05:21:16;;;;;;;3.10;2.50;;;;;;;;;;5032606;28;20052;-29
2023/12/08 05:23:43;;;;;;;3.22;2.53;;;19.50;62.90;;;;;;5032484;28;20088;-32
2023/12/08 05:26:11;;;;;;;4.20;2.15;;;20.30;64.20;;;;;;5033080;28;20045;-31
2023/12/08 05:28:38;;;;;;;2.90;2.33;;;;;;;;;;5032634;28;20046;-31
2023/12/08 05:31:05;;;;;;;2.25;2.05;;;20.50;63.80;;;;;;5031662;28;20057;-30
2023/12/08 05:33:33;;;;;;;3.33;2.42;;;20.50;42.90;;;;;;5032408;28;20136;-32
2023/12/08 05:36:01;;;;;;;2.90;2.40;;;20.40;63.40;;;;;;5032119;28;20053;-27
2023/12/08 05:38:28;;;;;;;2.90;2.30;;;20.50;63.50;;;;;;5032888;28;20415;-27
2023/12/08 05:40:55;;;;;;;2.70;2.30;;;20.60;45.40;;;;;;5032018;28;20095;-27
2023/12/08 05:43:23;;;;;;;3.20;2.40;;;;;;;;;;5032760;28;20153;-29
2023/12/08 05:45:49;;;;;;;3.03;2.20;;;20.20;55.30;;;;;;5032357;28;20077;-26
2023/12/08 05:48:16;;;;;;;3.10;2.40;;;;;;;;;;5031789;28;20107;-28
2023/12/08 05:50:45;;;;;;;2.72;2.38;;;20.70;64.40;;;;;;5032411;28;20055;-26
2023/12/08 05:53:12;;;;;;;2.72;2.45;;;20.00;63.20;;;;;;5032167;28;20049;-25
2023/12/08 05:55:38;;;;;;;3.00;2.40;;;21.00;64.10;;;;;;5032120;28;20095;-26
2023/12/08 05:58:05;;;;;;;3.42;2.40;;;20.30;63.30;;;;;;5032173;28;20049;-26
2023/12/08 06:00:33;;;;;;;2.72;2.35;;;20.90;63.80;;;;;;5032132;28;20499;-33
2023/12/08 06:03:00;;;;;;;2.60;2.30;;;20.70;63.50;;;;;;5032294;28;20407;-29
2023/12/08 06:05:27;;;;;;;2.53;2.15;;;;;;;;;;5032029;28;20068;-31
2023/12/08 06:07:55;;;;;;;2.97;2.28;;;20.40;64.40;;;;;;5031959;28;20096;-25
2023/12/08 06:10:22;;;;;;;2.85;2.40;;;20.10;63.30;;;;;;5031872;28;20104;-25
2023/12/08 06:12:49;;;;;;;2.38;2.13;;;20.90;48.30;;;;;;5031857;28;20495;-27
2023/12/08 06:15:16;;;;;;;2.35;2.15;;;19.70;63.40;;;;;;5031776;28;20053;-25
2023/12/08 06:17:43;;;;;;;3.60;2.58;;;19.40;62.90;;;;;;5031980;28;20107;-33
2023/12/08 06:20:12;;;;;;;3.08;2.35;;;20.50;63.80;;;;;;5031698;28;20124;-29
2023/12/08 06:22:40;;;;;;;2.58;2.20;;;20.00;64.10;;;;;;5031576;28;20052;-25
2023/12/08 06:25:09;;;;;;;2.55;2.28;;;21.00;64.00;;;;;;5031872;28;20525;-26
2023/12/08 06:27:36;;;;;;;3.25;2.40;;;20.50;42.90;;;;;;5031696;28;20064;-28
2023/12/08 06:30:04;;;;;;;3.55;2.45;;;20.20;64.10;;;;;;5031505;28;20072;-25
2023/12/08 06:32:31;;;;;;;2.83;2.38;;;20.60;63.80;;;;;;5031479;28;20095;-25
2023/12/08 06:34:58;;;;;;;2.88;2.35;;;;;;;;;;5031810;28;20052;-30
2023/12/08 06:37:25;;;;;;;2.55;2.08;;;20.00;63.00;;;;;;5030830;28;20522;-27
2023/12/08 06:39:51;;;;;;;2.30;2.10;;;21.10;63.70;;;;;;5031787;28;20096;-30
2023/12/08 06:42:21;;;;;;;3.40;2.30;;;20.80;57.70;;;;;;5034639;28;20053;-25
2023/12/08 06:44:49;;;;;;;2.75;2.20;;;;;;;;;;5035673;28;20107;-26
2023/12/08 06:47:15;;;;;;;2.90;2.60;;;20.50;63.90;;;;;;5035955;28;20053;-26
2023/12/08 06:49:43;;;;;;;3.17;2.47;;;;;;;;;;5035566;28;20104;-28
2023/12/08 06:52:09;;;;;;;2.80;2.50;;;21.10;64.50;;;;;;5035587;28;20045;-25
2023/12/08 06:54:37;;;;;;;2.63;2.28;;;;;;;;;;5035062;28;20049;-30
2023/12/08 06:57:04;;;;;;;2.40;2.20;;;21.50;64.30;;;;;;5035477;28;20049;-26
2023/12/08 06:59:32;;;;;;;2.72;2.47;;;21.50;43.40;;;;;;5035642;28;20042;-28
2023/12/08 07:01:59;;;;;;;2.92;2.50;;;20.20;52.40;;;;;;5035297;28;20095;-29
2023/12/08 07:04:26;;;;;;;3.08;2.35;;;20.70;64.30;;;;;;5035330;28;20053;-31
2023/12/08 07:06:54;;;;;;;2.75;2.20;;;21.50;63.90;;;;;;5035239;28;20049;-32
2023/12/08 07:09:21;;;;;;;2.72;2.35;;;20.50;56.90;;;;;;5035132;28;20049;-30
2023/12/08 07:11:48;;;;;;;2.50;2.30;;;;;;;;;;5034870;28;20050;-32
2023/12/08 07:14:15;;;;;;;3.80;2.63;;;20.70;51.70;;;;;;5035325;28;20049;-28
2023/12/08 07:16:44;;;;;;;2.50;2.30;;;20.40;63.30;;;;;;5035203;28;20053;-26
2023/12/08 07:19:11;;;;;;;3.08;2.50;;;;;;;;;;5034816;28;20049;-29
2023/12/08 07:21:42;;;;;;;2.60;2.30;;;20.70;63.90;;;;;;5035186;28;20103;-31
2023/12/08 07:24:09;;;;;;;2.92;2.13;;;20.90;63.90;;;;;;5034960;28;20126;-32
2023/12/08 07:26:36;;;;;;;2.20;2.00;;;;;;;;;;5034911;28;20057;-29
2023/12/08 07:29:03;;;;;;;3.63;2.55;;;;;;;;;;5034309;28;20049;-29
2023/12/08 07:31:30;;;;;;;2.90;2.60;;;20.80;63.50;;;;;;5034209;28;20057;-31
2023/12/08 07:33:58;;;;;;;3.45;2.50;;;20.30;45.90;;;;;;5035482;28;20053;-32
2023/12/08 07:36:25;;;;;;;3.40;2.40;;;21.50;63.70;;;;;;5043331;28;20102;-31
2023/12/08 07:38:52;;;;;;;3.10;2.25;;;20.40;55.80;;;;;;5045680;28;20052;-30
2023/12/08 07:41:19;;;;;;;3.53;2.55;;;;;;;;;;5054534;28;20090;-32
2023/12/08 07:43:48;;;;;;;2.95;2.42;;;19.10;42.30;;;;;;5054562;28;20057;-27
2023/12/08 07:46:15;;;;;;;2.17;1.98;;;20.90;63.50;;;;;;5054617;28;20049;-27
2023/12/08 07:48:41;;;;;;;3.10;2.53;;;20.70;63.40;;;;;;5054788;28;20052;-25
2023/12/08 07:51:10;;;;;;;2.60;2.28;;;20.50;42.70;;;;;;5054141;28;20048;-28
2023/12/08 07:53:37;;;;;;;2.53;2.30;;;21.00;53.30;;;;;;5051542;28;20508;-27
2023/12/08 07:56:04;;;;;;;2.72;2.25;;;19.80;63.70;;;;;;5033731;28;20045;-26
2023/12/08 07:58:31;;;;;;;2.40;2.20;;;20.80;62.80;;;;;;5034434;28;20060;-26
2023/12/08 08:00:58;;;;;;;3.97;2.38;;;21.00;64.00;;;;;;5034442;28;20103;-27
2023/12/08 08:03:26;;;;;;;2.25;2.00;;;;;;;;;;5033557;28;20073;-28
2023/12/08 08:05:53;;;;;;;2.50;2.30;;;;;;;;;;5034153;28;20060;-28
2023/12/08 08:08:21;;;;;;;2.63;2.42;;;20.20;49.20;;;;;;5033947;28;20042;-30
2023/12/08 08:10:48;;;;;;;2.72;2.20;;;21.10;63.90;;;;;;5032924;28;20042;-30
2023/12/08 08:13:15;;;;;;;2.83;2.25;;;;;;;;;;5033317;28;20096;-28
2023/12/08 08:15:42;;;;;;;2.92;2.45;;;20.80;63.40;;;;;;5033568;28;20049;-30
2023/12/08 08:18:09;;;;;;;3.03;2.28;;;;;;;;;;5034203;28;20560;-27
2023/12/08 08:20:36;;;;;;;2.30;2.10;;;21.00;64.40;;;;;;5033886;28;20475;-29
2023/12/08 08:23:03;;;;;;;2.97;2.65;;;;;;;;;;5033803;28;20416;-30
2023/12/08 08:25:31;;;;;;;2.35;2.08;;;20.60;63.60;;;;;;5033515;28;20453;-26
2023/12/08 08:28:00;;;;;;;2.67;2.40;;;20.80;63.50;;;;;;5033346;28;20427;-26
2023/12/08 08:30:27;;;;;;;2.90;2.60;;;20.80;63.50;;;;;;5033282;28;20060;-26
2023/12/08 08:32:54;;;;;;;2.97;2.40;;;;;;;;;;5033117;28;20053;-26
2023/12/08 08:35:21;;;;;;;2.85;2.50;;;19.60;62.70;;;;;;5033775;28;20053;-25
2023/12/08 08:37:48;;;;;;;3.03;2.50;;;20.70;50.90;;;;;;5040362;28;20049;-26
2023/12/08 08:40:15;;;;;;;3.42;2.33;;;20.60;64.00;;;;;;5035542;28;20095;-25
2023/12/08 08:42:44;;;;;;;2.45;2.25;;;20.50;63.50;;;;;;5037924;28;20095;-25
2023/12/08 08:45:11;;;;;;;2.75;2.30;;;20.20;63.90;;;;;;5053398;28;20387;-25
2023/12/08 08:47:39;;;;;;;2.90;2.22;;;;;;;;;;5042244;28;20464;-28
2023/12/08 08:50:07;;;;;;;2.92;2.42;;;20.60;42.70;;;;;;5035960;28;20045;-26
2023/12/08 08:52:35;;;;;;;2.55;2.33;;;;;;;;;;5045591;28;20136;-31
2023/12/08 08:55:03;;;;;;;2.80;2.28;;;20.60;42.70;;;;;;5033136;28;20510;-28
2023/12/08 08:57:30;;;;;;;3.05;2.20;;;20.30;63.00;;;;;;5044191;28;20080;-31
2023/12/08 08:59:58;;;;;;;2.78;2.30;;;20.50;63.10;;;;;;5038608;28;20414;-31
2023/12/08 09:02:25;;;;;;;2.35;2.10;;;21.00;64.30;;;;;;5032909;28;20050;-30
2023/12/08 09:04:52;;;;;;;2.50;2.20;;;20.00;62.80;;;;;;5032912;28;20072;-26
2023/12/08 09:07:19;;;;;;;2.78;2.42;;;20.60;55.30;;;;;;5033355;28;20049;-26
2023/12/08 09:09:45;;;;;;;3.00;2.45;;;20.00;62.80;;;;;;5032663;28;20127;-25
2023/12/08 09:12:13;;;;;;;2.65;2.45;;;;;;;;;;5015132;28;20400;-31
2023/12/08 09:14:40;;;;;;;2.58;2.05;;;;;;;;;;5032534;28;20052;-32
2023/12/08 09:17:08;;;;;;;2.75;2.25;;;20.70;42.70;;;;;;5032343;28;20049;-29
2023/12/08 09:19:35;;;;;;;3.08;2.38;;;20.50;47.00;;;;;;5032522;28;20041;-28
2023/12/08 09:22:03;;;;;;;2.72;2.42;;;21.10;64.30;;;;;;5031883;28;20057;-26
2023/12/08 09:24:30;;;;;;;2.92;2.42;;;20.20;62.90;;;;;;5032180;28;20487;-27
2023/12/08 09:26:57;;;;;;;2.85;2.30;;;21.20;64.20;;;;;;5032189;28;20081;-26
2023/12/08 09:29:23;;;;;;;2.78;2.25;;;21.00;59.00;;;;;;5032163;28;20487;-30
2023/12/08 09:31:50;;;;;;;2.53;2.13;;;20.90;64.00;;;;;;5031572;28;20045;-30
2023/12/08 09:34:18;;;;;;;3.13;2.30;;;20.70;42.70;;;;;;5032750;28;20099;-30
2023/12/08 09:36:46;;;;;;;2.60;2.30;;;;;;;;;;5031946;28;20107;-29
2023/12/08 09:39:13;;;;;;;3.03;2.42;;;20.40;63.00;;;;;;5031876;28;20053;-31
2023/12/08 09:41:40;;;;;;;3.10;2.17;;;;;;;;;;5031715;28;20045;-31
2023/12/08 09:44:10;;;;;;;2.80;2.35;;;20.50;63.00;;;;;;5041370;28;20093;-31
2023/12/08 09:46:37;;;;;;;2.30;2.10;;;20.60;62.90;;;;;;5038927;28;20112;-35
2023/12/08 09:49:05;;;;;;;2.92;2.55;;;20.50;48.80;;;;;;5038877;28;20041;-26
2023/12/08 09:51:33;;;;;;;2.40;2.08;;;21.40;43.00;;;;;;5039434;28;20482;-27
2023/12/08 09:54:00;;;;;;;2.75;2.40;;;20.60;51.10;;;;;;5041759;28;20045;-27
2023/12/08 09:56:28;;;;;;;2.80;2.33;;;21.20;64.10;;;;;;5042681;28;20045;-26
2023/12/08 09:58:55;;;;;;;3.10;2.50;;;20.40;63.50;;;;;;5032126;28;20053;-28
2023/12/08 10:01:22;;;;;;;2.45;2.15;;;21.40;64.10;;;;;;5031243;28;20188;-28
2023/12/08 10:03:49;;;;;;;4.03;2.28;;;21.30;42.90;;;;;;5038116;28;20053;-29
2023/12/08 10:06:16;;;;;;;3.63;2.20;;;20.90;63.10;;;;;;5049980;28;20395;-32
2023/12/08 10:08:44;;;;;;;2.58;2.10;;;21.90;46.80;;;;;;5035873;28;20045;-29
2023/12/08 10:11:11;;;;;;;2.60;2.33;;;20.80;52.20;;;;;;5030213;28;20045;-31
2023/12/08 10:13:37;;;;;;;2.65;2.13;;;21.10;64.00;;;;;;5030993;28;20041;-27
2023/12/08 10:16:05;;;;;;;6.07;2.10;;;;;;;;;;5030973;28;20050;-28
2023/12/08 10:18:33;;;;;;;2.80;2.40;;;;;;;;;;5031358;28;20045;-27
2023/12/08 10:21:15;;;;;;;2.58;2.38;;;20.90;42.60;;;;;;5024814;28;20522;-27
2023/12/08 10:23:43;;;;;;;2.40;2.20;;;21.30;64.00;;;;;;5040063;28;20511;-25
2023/12/08 10:26:12;;;;;;;3.30;2.53;;;20.80;63.80;;;;;;5043891;28;20055;-30
2023/12/08 10:28:39;;;;;;;2.75;2.40;;;21.10;63.10;;;;;;5037397;28;20052;-31
2023/12/08 10:31:06;;;;;;;3.20;2.30;;;20.80;62.90;;;;;;5042685;28;20045;-26
2023/12/08 10:33:32;;;;;;;3.20;2.40;;;20.80;63.80;;;;;;5036869;28;20499;-32
2023/12/08 10:36:00;;;;;;;2.60;2.20;;;;;;;;;;5033370;28;20445;-26
2023/12/08 10:38:27;;;;;;;2.53;2.25;;;;;;;;;;5031334;28;20053;-27
2023/12/08 10:40:55;;;;;;;2.58;2.38;;;20.90;42.60;;;;;;5030764;28;20057;-30
2023/12/08 10:43:25;;;;;;;2.70;2.28;;;21.20;64.00;;;;;;5030885;28;20052;-29
2023/12/08 10:45:52;;;;;;;2.53;2.20;;;20.60;58.40;;;;;;4861152;28;56746;-28
2023/12/08 10:48:20;;;;;;;2.60;2.40;;;20.70;63.70;;;;;;4973349;28;20498;-32
2023/12/08 10:50:48;;;;;;;2.53;2.33;;;21.10;63.60;;;;;;5059523;28;20044;-30
2023/12/08 10:53:16;;;;;;;2.83;2.33;;;19.70;62.40;;;;;;5057981;28;20465;-25
2023/12/08 10:55:43;;;;;;;2.75;2.10;;;22.00;64.10;;;;;;5060650;28;20079;-26
2023/12/08 10:58:14;;;;;;;2.67;2.22;;;20.80;42.70;;;;;;5056765;28;20063;-29
2023/12/08 11:00:41;;;;;;;5.10;2.47;;;21.30;63.40;;;;;;5051376;28;20413;-26
2023/12/08 11:03:09;;;;;;;3.22;2.40;;;20.90;42.80;;;;;;5051314;28;20410;-27
2023/12/08 11:05:38;;;;;;;2.63;2.30;;;20.80;42.70;;;;;;5053776;28;20098;-28
2023/12/08 11:08:06;;;;;;;2.53;2.22;;;21.60;63.40;;;;;;5059660;28;20513;-25
2023/12/08 11:10:34;;;;;;;2.67;2.28;;;20.50;57.80;;;;;;5054192;28;20094;-25
2023/12/08 11:13:22;;;;;;;2.80;2.20;;;20.40;63.10;;;;;;5059429;28;20110;-26
2023/12/08 11:15:54;;;;;;;2.45;2.25;;;20.80;42.70;;;;;;5061639;28;20084;-29
2023/12/08 11:18:24;;;;;;;2.92;2.28;;;21.30;63.70;;;;;;5066282;28;20102;-30
2023/12/08 11:20:51;;;;;;;2.92;2.30;;;;;;;;;;5065906;28;20052;-26
2023/12/08 11:23:18;;;;;;;2.67;2.25;;;;;;;;;;5050238;28;20045;-25
2023/12/08 11:25:47;;;;;;;3.50;2.35;;;21.90;63.60;;;;;;5050883;28;20049;-31
2023/12/08 11:28:31;;;;;;;2.22;2.03;;;20.80;42.70;;;;;;5051999;28;20052;-32
2023/12/08 11:31:00;;;;;;;2.80;2.25;;;21.00;48.50;;;;;;5054245;28;20409;-28
2023/12/08 11:33:30;;;;;;;2.65;2.33;;;20.80;42.70;;;;;;5054395;28;20049;-28
2023/12/08 11:36:07;;;;;;;3.78;2.50;;;20.80;42.70;;;;;;5053610;28;20045;-30
2023/12/08 11:38:33;;;;;;;2.63;2.33;;;20.10;63.20;;;;;;5054669;28;20048;-28
2023/12/08 11:41:01;;;;;;;3.13;2.60;;;;;;;;;;5054168;28;20049;-29
2023/12/08 11:43:29;;;;;;;3.15;2.50;;;20.40;62.50;;;;;;5054405;28;20045;-30
2023/12/08 11:45:56;;;;;;;2.20;2.00;;;20.40;63.30;;;;;;5054135;28;20390;-30
2023/12/08 11:48:23;;;;;;;3.00;2.33;;;21.00;63.70;;;;;;5054417;28;20099;-32
2023/12/08 11:50:49;;;;;;;6.38;3.78;;;20.60;47.00;;;;;;5056431;28;20090;-29
2023/12/08 11:53:17;;;;;;;9.40;5.90;;;19.60;62.60;;;;;;5059635;28;20052;-25
2023/12/08 11:55:44;;;;;;;13.00;9.57;;;20.30;56.20;;;;;;5074657;28;20110;-27
2023/12/08 11:58:12;;;;;;;21.42;17.45;;;21.40;63.80;;;;;;5062176;28;20079;-27
2023/12/08 12:00:41;;;;;;;26.65;21.13;;;20.50;63.30;;;;;;5060849;28;20049;-27
2023/12/08 12:03:10;;;;;;;36.10;24.20;;;20.80;49.80;;;;;;5064139;28;20098;-27
2023/12/08 12:05:38;;;;;;;31.27;24.48;;;20.30;63.60;;;;;;5054206;28;20071;-25
2023/12/08 12:08:05;;;;;;;29.05;24.38;;;20.90;63.80;;;;;;5054433;28;20068;-25
2023/12/08 12:10:33;;;;;;;28.70;23.05;;;19.70;60.80;;;;;;5054006;28;20049;-26
2023/12/08 12:13:03;;;;;;;30.30;24.02;;;20.40;64.50;;;;;;5053697;28;20060;-26
2023/12/08 12:15:30;;;;;;;33.70;23.65;;;20.50;63.90;;;;;;5053824;28;20057;-27
2023/12/08 12:17:58;;;;;;;28.10;22.38;;;20.40;63.90;;;;;;5053909;28;20132;-25
2023/12/08 12:20:25;;;;;;;26.45;21.58;;;20.90;64.20;;;;;;5053396;28;20059;-25
2023/12/08 12:22:52;;;;;;;30.88;22.67;;;;;;;;;;5052937;28;20521;-29
2023/12/08 12:25:20;;;;;;;28.17;22.70;;;;;;;;;;5053662;28;20456;-25
2023/12/08 12:27:47;;;;;;;31.13;23.00;;;21.20;45.20;;;;;;5053500;28;20049;-27
2023/12/08 12:30:15;;;;;;;28.50;20.55;;;20.50;64.70;;;;;;5053195;28;20506;-25
2023/12/08 12:32:44;;;;;;;28.05;19.92;;;19.70;63.90;;;;;;5053115;28;20053;-27
2023/12/08 12:35:13;;;;;;;23.08;17.33;;;19.50;47.40;;;;;;5062642;28;20059;-29
2023/12/08 12:37:40;;;;;;;22.08;16.60;;;19.70;63.30;;;;;;5058630;28;20057;-31
2023/12/08 12:40:08;;;;;;;22.00;15.25;;;20.90;50.10;;;;;;5056037;28;20049;-25
2023/12/08 12:42:40;;;;;;;18.77;15.05;;;20.90;44.70;;;;;;5061259;28;20113;-28
2023/12/08 12:45:08;;;;;;;16.98;13.35;;;20.50;43.70;;;;;;5053471;28;20052;-27
2023/12/08 12:47:35;;;;;;;18.92;13.13;;;19.70;50.90;;;;;;5053631;28;20049;-25
2023/12/08 12:50:04;;;;;;;15.68;11.95;;;20.50;43.70;;;;;;5053042;28;20056;-24
2023/12/08 12:52:34;;;;;;;15.05;11.25;;;20.60;65.00;;;;;;5053325;28;20123;-24
2023/12/08 12:55:02;;;;;;;13.80;11.20;;;;;;;;;;5061329;28;20132;-28
2023/12/08 12:57:42;;;;;;;14.07;10.07;;;20.50;43.60;;;;;;5073159;28;20097;-27
2023/12/08 13:00:10;;;;;;;15.40;9.95;;;20.10;63.80;;;;;;5073180;28;20102;-23
2023/12/08 13:02:37;;;;;;;11.85;9.20;;;20.10;63.90;;;;;;5072633;28;20049;-25
2023/12/08 13:05:08;;;;;;;12.15;8.90;;;20.30;46.50;;;;;;5059562;28;20126;-26
2023/12/08 13:07:36;;;;;;;12.55;8.75;;;21.00;65.10;;;;;;5066834;28;20052;-29